Time;durP1;ratioP1;P1;durP2;ratioP2;P2;SDS_P1;SDS_P2;PMS_P1;PMS_P2;Temp;Humidity;BMP_temperature;BMP_pressure;BME280_temperature;BME280_humidity;BME280_pressure;Samples;Min_cycle;Max_cycle;Signal;HPM_P1;HPM_P2
2023/05/01 00:00:59;;;;;;;7.90;5.00;;;8.60;99.90;;;7.41;100.00;97731.72;4966709;28;20047;-77
2023/05/01 00:03:26;;;;;;;8.05;5.38;;;8.60;99.90;;;7.45;100.00;97733.34;4954566;28;20050;-77
2023/05/01 00:06:00;;;;;;;10.55;5.32;;;8.60;99.90;;;7.60;100.00;97725.16;4969531;28;21270;-76
2023/05/01 00:08:28;;;;;;;9.80;6.43;;;8.60;99.90;;;7.50;100.00;97718.56;4966686;28;20047;-76
2023/05/01 00:10:55;;;;;;;8.93;5.25;;;8.60;99.90;;;7.54;100.00;97718.44;4971774;28;20051;-76
2023/05/01 00:13:23;;;;;;;5.45;3.55;;;8.70;99.90;;;7.49;100.00;97717.72;4967188;28;20058;-77
2023/05/01 00:15:51;;;;;;;7.32;4.45;;;8.70;99.90;;;7.49;100.00;97712.56;4947758;28;20046;-76
2023/05/01 00:18:18;;;;;;;7.70;4.60;;;8.70;99.90;;;7.58;100.00;97716.63;4967767;28;20503;-77
2023/05/01 00:20:48;;;;;;;10.23;4.57;;;8.70;99.90;;;7.44;100.00;97713.59;4970450;28;20047;-77
2023/05/01 00:23:16;;;;;;;5.85;3.80;;;8.70;99.90;;;7.49;100.00;97711.72;4968533;28;20169;-77
2023/05/01 00:25:43;;;;;;;14.82;3.53;;;8.70;99.90;;;7.49;100.00;97699.63;4968593;28;20070;-77
2023/05/01 00:28:10;;;;;;;5.82;3.00;;;8.70;99.90;;;7.46;100.00;97704.06;4972327;28;20051;-77
2023/05/01 00:30:37;;;;;;;5.05;2.80;;;8.70;99.90;;;7.47;100.00;97695.41;4973756;28;20055;-77
2023/05/01 00:33:06;;;;;;;4.45;2.22;;;8.70;99.90;;;7.32;100.00;97692.38;4979442;28;20691;-76
2023/05/01 00:35:34;;;;;;;6.78;2.60;;;8.60;99.90;;;7.38;100.00;97699.09;4965620;28;20074;-76
2023/05/01 00:38:01;;;;;;;6.57;2.17;;;8.60;99.90;;;7.35;100.00;97686.28;4946850;28;20093;-76
2023/05/01 00:40:30;;;;;;;3.20;1.92;;;8.60;99.90;;;7.40;100.00;97686.97;4970677;28;20102;-76
2023/05/01 00:42:59;;;;;;;5.03;2.35;;;8.60;99.90;;;7.43;100.00;97683.47;4950642;28;20101;-76
2023/05/01 00:45:26;;;;;;;3.50;2.28;;;8.60;99.90;;;7.45;100.00;97681.69;4966275;28;20051;-76
2023/05/01 00:47:53;;;;;;;4.57;1.95;;;8.60;99.90;;;7.51;100.00;97678.94;4951178;28;20051;-77
2023/05/01 00:50:21;;;;;;;4.90;2.25;;;8.60;99.90;;;7.61;100.00;97670.03;4976873;28;20047;-77
2023/05/01 00:52:48;;;;;;;5.18;2.30;;;8.60;99.90;;;7.88;100.00;97663.19;4970762;28;20098;-77
2023/05/01 00:55:16;;;;;;;3.45;2.20;;;8.70;99.90;;;7.86;100.00;97654.63;4982795;28;20097;-77
2023/05/01 00:57:43;;;;;;;4.00;2.10;;;8.80;99.90;;;7.65;100.00;97653.53;4951306;28;20046;-77
2023/05/01 01:00:11;;;;;;;6.90;2.28;;;8.80;99.90;;;7.68;100.00;97652.59;4963280;28;20047;-77
2023/05/01 01:02:38;;;;;;;2.97;1.83;;;8.80;99.90;;;7.78;100.00;97645.41;4964502;28;20589;-77
2023/05/01 01:05:06;;;;;;;3.47;2.22;;;8.80;99.90;;;7.79;100.00;97636.78;4950316;28;20059;-77
2023/05/01 01:07:49;;;;;;;4.03;1.90;;;8.80;99.90;;;7.90;100.00;97635.56;4947526;28;20043;-77
2023/05/01 01:10:56;;;;;;;3.47;1.80;;;8.90;99.90;;;7.93;100.00;97622.53;4951443;28;20114;-77
2023/05/01 01:14:02;;;;;;;6.72;2.15;;;8.90;99.90;;;7.96;100.00;97621.63;4967022;28;20427;-76
2023/05/01 01:16:56;;;;;;;3.10;1.90;;;9.00;99.90;;;8.01;100.00;97619.72;4959931;28;20055;-77
2023/05/01 01:20:17;;;;;;;4.78;1.95;;;9.10;99.90;;;8.06;100.00;97610.06;4967043;28;20529;-78
2023/05/01 01:23:05;;;;;;;7.70;1.70;;;9.10;99.90;;;8.10;100.00;97603.09;4979259;28;20052;-77
2023/05/01 01:26:23;;;;;;;4.10;2.00;;;9.10;99.90;;;8.08;100.00;97607.44;4969014;28;20584;-76
2023/05/01 01:29:22;;;;;;;4.70;2.08;;;9.10;99.90;;;8.26;100.00;97598.25;4959752;28;20515;-76
2023/05/01 01:32:33;;;;;;;3.17;1.77;;;9.20;99.90;;;8.23;100.00;97599.19;4962246;28;20575;-77
2023/05/01 01:35:18;;;;;;;3.10;1.88;;;9.20;99.90;;;8.39;100.00;97594.34;4963032;28;20110;-76
2023/05/01 01:38:04;;;;;;;6.40;1.92;;;9.30;99.90;;;8.42;100.00;97596.88;4965845;28;20430;-75
2023/05/01 01:40:37;;;;;;;3.33;1.65;;;9.30;99.90;;;8.34;100.00;97589.31;4984865;28;20065;-74
2023/05/01 01:43:07;;;;;;;4.10;2.00;;;9.30;99.90;;;8.37;100.00;97594.41;4947391;28;20043;-75
2023/05/01 01:45:46;;;;;;;3.40;2.10;;;9.40;99.90;;;8.41;100.00;97592.59;4951553;28;20051;-75
2023/05/01 01:48:21;;;;;;;4.57;1.90;;;9.40;99.90;;;8.48;100.00;97582.88;4951521;28;20396;-75
2023/05/01 01:50:53;;;;;;;3.35;1.95;;;9.40;99.90;;;8.43;100.00;97589.97;4972302;28;20065;-75
2023/05/01 01:53:22;;;;;;;3.60;2.10;;;9.40;99.90;;;8.36;100.00;97581.53;4975800;28;20058;-75
2023/05/01 01:55:51;;;;;;;3.33;2.30;;;9.40;99.90;;;8.47;100.00;97579.44;4965683;28;20046;-75
2023/05/01 01:58:25;;;;;;;4.05;1.95;;;9.40;99.90;;;8.54;100.00;97582.69;4979208;28;20046;-75
2023/05/01 02:00:54;;;;;;;4.38;2.30;;;9.50;99.90;;;8.40;100.00;97580.56;4970140;28;20070;-75
2023/05/01 02:03:23;;;;;;;3.15;1.70;;;9.50;99.90;;;8.59;100.00;97573.00;4956400;28;20134;-75
2023/05/01 02:05:56;;;;;;;4.90;2.40;;;9.50;99.90;;;8.53;100.00;97570.63;4973782;28;20054;-75
2023/05/01 02:08:28;;;;;;;7.32;2.50;;;9.50;99.90;;;8.47;100.00;97571.69;4968242;28;20106;-75
2023/05/01 02:10:58;;;;;;;2.97;2.00;;;9.50;99.90;;;8.41;100.00;97564.13;4969652;28;20062;-75
2023/05/01 02:13:32;;;;;;;4.25;2.22;;;9.50;99.90;;;8.43;100.00;97571.84;4971943;28;20059;-75
2023/05/01 02:16:03;;;;;;;3.55;1.77;;;9.50;99.90;;;8.36;100.00;97568.59;4956930;28;20563;-75
2023/05/01 02:19:20;;;;;;;2.60;1.77;;;9.50;99.90;;;8.30;100.00;97561.91;4966704;28;20055;-76
2023/05/01 02:21:59;;;;;;;3.75;1.55;;;9.40;99.90;;;8.28;100.00;97563.69;4938146;28;20483;-75
2023/05/01 02:25:18;;;;;;;3.67;1.80;;;9.40;99.90;;;8.26;100.00;97570.66;4950949;28;20057;-76
2023/05/01 02:28:21;;;;;;;8.27;2.10;;;9.40;99.90;;;8.30;100.00;97576.53;4950240;28;20407;-77
2023/05/01 02:30:56;;;;;;;2.67;1.80;;;9.40;99.90;;;8.20;100.00;97578.59;4956163;28;20121;-75
2023/05/01 02:33:41;;;;;;;4.47;2.00;;;9.30;99.90;;;8.21;100.00;97575.13;4969330;28;20046;-75
2023/05/01 02:36:12;;;;;;;3.42;1.92;;;9.30;99.90;;;8.20;100.00;97572.59;4958722;28;20518;-76
2023/05/01 02:38:40;;;;;;;3.03;1.98;;;9.30;99.90;;;8.10;100.00;97574.66;4973130;28;20051;-75
2023/05/01 02:45:32;;;;;;;7.82;2.17;;;9.20;99.90;;;8.03;100.00;97579.16;4971990;28;20157;-76
2023/05/01 02:48:41;;;;;;;2.47;1.60;;;9.20;99.90;;;7.93;100.00;97567.41;4946684;28;20050;-75
2023/05/01 02:51:22;;;;;;;4.82;1.77;;;9.10;99.90;;;7.81;100.00;97573.00;4955994;28;20071;-75
2023/05/01 02:53:56;;;;;;;5.93;1.95;;;9.00;99.90;;;7.78;100.00;97581.69;4970679;28;20062;-76
2023/05/01 02:56:37;;;;;;;4.15;2.00;;;9.00;99.90;;;7.79;100.00;97573.03;4966929;28;20154;-75
2023/05/01 02:59:04;;;;;;;5.40;2.20;;;8.90;99.90;;;7.84;100.00;97576.31;4952977;28;20043;-75
2023/05/01 03:01:58;;;;;;;6.80;2.20;;;8.90;99.90;;;7.84;100.00;97573.72;4968615;28;20138;-75
2023/05/01 03:04:38;;;;;;;2.70;1.70;;;8.90;99.90;;;7.81;100.00;97563.50;4943409;28;20046;-77
2023/05/01 03:07:14;;;;;;;4.45;2.17;;;8.90;99.90;;;7.80;100.00;97569.56;4967548;28;20061;-75
2023/05/01 03:10:51;;;;;;;4.55;2.25;;;8.90;99.90;;;7.91;100.00;97571.78;4969258;28;20057;-75
2023/05/01 03:13:46;;;;;;;4.38;1.70;;;8.90;99.90;;;7.88;100.00;97562.41;4964491;28;20130;-75
2023/05/01 03:16:49;;;;;;;4.05;2.10;;;8.90;99.90;;;7.86;100.00;97555.59;4959190;28;20049;-75
2023/05/01 03:19:16;;;;;;;4.53;2.22;;;8.90;99.90;;;7.84;100.00;97567.72;4953643;28;20129;-75
2023/05/01 03:22:32;;;;;;;7.22;2.22;;;8.90;99.90;;;7.77;100.00;97567.06;4957939;28;20061;-75
2023/05/01 03:25:00;;;;;;;4.53;2.10;;;8.90;99.90;;;7.70;100.00;97558.66;4944637;28;20061;-75
2023/05/01 03:30:47;;;;;;;4.15;2.08;;;8.80;99.90;;;7.67;100.00;97569.09;4967544;28;20896;-75
2023/05/01 03:33:17;;;;;;;4.82;2.40;;;8.70;99.90;;;7.69;100.00;97556.13;4954728;28;20219;-77
2023/05/01 03:36:10;;;;;;;3.10;2.00;;;8.80;99.90;;;7.70;100.00;97568.16;4949788;28;20050;-75
2023/05/01 03:39:08;;;;;;;3.55;2.15;;;8.80;99.90;;;7.84;100.00;97562.53;4953064;28;20058;-77
2023/05/01 03:41:50;;;;;;;5.78;1.83;;;8.80;99.90;;;7.80;100.00;97560.94;4953229;28;20065;-77
2023/05/01 03:44:58;;;;;;;4.30;2.33;;;8.80;99.90;;;7.83;100.00;97560.88;4965721;28;20067;-77
2023/05/01 03:47:35;;;;;;;2.90;1.92;;;8.80;99.90;;;7.84;100.00;97554.78;4953756;28;20047;-77
2023/05/01 03:50:03;;;;;;;4.32;2.47;;;8.90;99.90;;;7.83;100.00;97553.94;4968629;28;20050;-75
2023/05/01 03:53:24;;;;;;;3.58;2.17;;;8.90;99.90;;;7.89;100.00;97553.75;4932470;28;20062;-75
2023/05/01 03:56:04;;;;;;;6.88;2.72;;;8.90;99.90;;;7.85;100.00;97556.50;4968215;28;20066;-76
2023/05/01 03:58:32;;;;;;;3.38;2.13;;;8.90;99.90;;;7.92;100.00;97558.00;4967988;28;21526;-75
2023/05/01 04:01:08;;;;;;;4.25;2.17;;;8.90;99.90;;;7.93;100.00;97555.34;4968815;28;20043;-76
2023/05/01 04:03:34;;;;;;;3.63;1.88;;;9.00;99.90;;;7.99;100.00;97556.06;4936595;28;20113;-75
2023/05/01 04:06:18;;;;;;;5.55;2.17;;;9.00;99.90;;;8.00;100.00;97548.22;4966523;28;20055;-75
2023/05/01 04:08:51;;;;;;;3.35;1.85;;;9.00;99.90;;;7.99;100.00;97551.72;4965655;28;20097;-75
2023/05/01 04:11:21;;;;;;;3.90;2.35;;;9.00;99.90;;;8.01;100.00;97551.69;4987193;28;20057;-75
2023/05/01 04:13:48;;;;;;;4.03;2.20;;;9.00;99.90;;;7.94;100.00;97548.44;4969102;28;20043;-75
2023/05/01 04:16:51;;;;;;;3.47;1.77;;;9.00;99.90;;;7.94;100.00;97544.13;4968925;28;20238;-75
2023/05/01 04:19:21;;;;;;;4.68;2.08;;;9.00;99.90;;;7.91;100.00;97551.97;4962523;28;20065;-75
2023/05/01 04:22:01;;;;;;;3.00;2.30;;;8.90;99.90;;;7.85;100.00;97552.16;4948781;28;20061;-75
2023/05/01 04:24:28;;;;;;;3.10;1.75;;;8.90;99.90;;;7.88;100.00;97551.22;4974862;28;20519;-75
2023/05/01 04:27:37;;;;;;;3.47;2.03;;;8.90;99.90;;;7.94;100.00;97556.19;4965230;28;20141;-76
2023/05/01 04:30:10;;;;;;;4.20;2.00;;;8.90;99.90;;;7.84;100.00;97554.78;4971110;28;20054;-75
2023/05/01 04:32:50;;;;;;;2.97;1.90;;;8.90;99.90;;;7.90;100.00;97557.19;4967097;28;20511;-75
2023/05/01 04:35:20;;;;;;;5.43;2.30;;;8.90;99.90;;;7.96;100.00;97555.25;4963865;28;20541;-75
2023/05/01 04:37:48;;;;;;;5.85;2.05;;;8.90;99.90;;;7.99;100.00;97554.31;4963931;28;20047;-76
2023/05/01 04:40:25;;;;;;;5.75;2.50;;;8.90;99.90;;;8.12;100.00;97557.34;4970348;28;20463;-76
2023/05/01 04:42:52;;;;;;;3.35;2.10;;;8.90;99.90;;;8.08;100.00;97555.75;4970752;28;20053;-76
2023/05/01 04:45:34;;;;;;;3.92;1.92;;;9.00;99.90;;;8.12;100.00;97547.84;4972378;28;20047;-75
2023/05/01 04:48:20;;;;;;;4.40;2.30;;;9.10;99.90;;;8.26;100.00;97541.38;4963220;28;20047;-76
2023/05/01 04:50:54;;;;;;;6.03;2.63;;;9.10;99.90;;;8.34;100.00;97541.94;4962814;28;20381;-76
2023/05/01 04:53:50;;;;;;;4.20;2.58;;;9.20;99.90;;;8.33;100.00;97541.09;4909738;29;20100;-76
2023/05/01 04:59:49;;;;;;;3.85;2.22;;;9.30;99.90;;;8.56;100.00;97544.66;4967504;28;20050;-76
2023/05/01 05:02:24;;;;;;;3.47;2.13;;;9.30;99.90;;;8.68;100.00;97538.22;4966496;28;20221;-76
2023/05/01 05:05:25;;;;;;;4.05;2.05;;;9.40;99.90;;;8.65;100.00;97538.31;4966228;28;20045;-76
2023/05/01 05:08:33;;;;;;;8.35;2.95;;;9.50;99.90;;;8.69;100.00;97534.72;4948280;28;20058;-76
2023/05/01 05:11:13;;;;;;;4.53;2.42;;;9.60;99.90;;;8.78;100.00;97527.47;4968844;28;20054;-76
2023/05/01 05:13:46;;;;;;;4.63;2.80;;;9.60;99.90;;;8.76;100.00;97523.25;4966136;28;20086;-76
2023/05/01 05:16:14;;;;;;;4.53;2.70;;;9.70;99.90;;;8.81;100.00;97526.53;4964283;28;20043;-76
2023/05/01 05:19:24;;;;;;;3.47;2.10;;;9.70;99.90;;;8.95;100.00;97524.25;4966753;28;20053;-75
2023/05/01 05:21:51;;;;;;;4.82;2.55;;;9.70;99.90;;;9.03;100.00;97525.72;4951017;28;20427;-76
2023/05/01 05:24:24;;;;;;;3.63;2.20;;;9.80;99.90;;;9.03;100.00;97521.38;4966923;28;20133;-76
2023/05/01 05:27:19;;;;;;;4.47;2.60;;;9.80;99.90;;;9.11;100.00;97516.78;4949747;28;20051;-75
2023/05/01 05:30:18;;;;;;;4.50;2.50;;;9.80;99.90;;;9.20;100.00;97511.25;4965063;28;20066;-76
2023/05/01 05:32:55;;;;;;;5.90;2.55;;;10.00;99.90;;;9.19;100.00;97506.97;4966412;28;20121;-76
2023/05/01 05:35:22;;;;;;;3.55;2.55;;;;;;;9.17;100.00;97513.13;4950405;28;20054;-76
2023/05/01 05:38:06;;;;;;;4.97;2.50;;;10.00;99.90;;;9.21;100.00;97504.31;4947045;28;20043;-76
2023/05/01 05:40:36;;;;;;;6.47;2.30;;;10.00;99.90;;;9.21;100.00;97507.75;4976884;28;20232;-76
2023/05/01 05:43:07;;;;;;;4.38;2.90;;;10.10;99.90;;;9.25;100.00;97502.47;4972992;28;20051;-76
2023/05/01 05:45:34;;;;;;;4.43;2.40;;;10.00;99.90;;;9.21;100.00;97496.53;4968626;28;20137;-76
2023/05/01 05:48:29;;;;;;;4.25;2.80;;;10.10;99.90;;;9.24;100.00;97499.03;4968232;28;20475;-76
2023/05/01 05:51:45;;;;;;;6.40;2.50;;;10.00;99.90;;;9.26;100.00;97492.06;4976368;28;20059;-76
2023/05/01 05:54:11;;;;;;;5.07;2.70;;;10.10;99.90;;;9.53;100.00;97484.91;4961031;28;20051;-76
2023/05/01 05:57:12;;;;;;;5.03;2.50;;;10.20;99.90;;;9.57;100.00;97486.47;4965426;28;20050;-76
2023/05/01 05:59:57;;;;;;;3.15;2.22;;;10.30;99.90;;;9.46;100.00;97485.22;4961001;28;20047;-76
2023/05/01 06:02:36;;;;;;;5.75;2.92;;;10.30;99.90;;;9.58;100.00;97483.00;4970549;28;20050;-75
2023/05/01 06:05:09;;;;;;;6.03;2.33;;;10.30;99.90;;;9.65;100.00;97486.19;4968903;28;20079;-76
2023/05/01 06:08:14;;;;;;;5.03;2.40;;;10.40;99.90;;;9.77;100.00;97482.25;4983648;28;20046;-76
2023/05/01 06:11:16;;;;;;;3.95;2.33;;;10.50;99.90;;;9.95;100.00;97475.47;4927452;29;20652;-76
2023/05/01 06:14:23;;;;;;;3.80;2.17;;;10.60;99.90;;;10.32;100.00;97476.53;4908970;29;20088;-76
2023/05/01 06:17:56;;;;;;;3.90;2.63;;;10.80;99.90;;;10.18;100.00;97471.91;4897271;29;20537;-76
2023/05/01 06:20:41;;;;;;;;;;;10.80;99.90;;;10.38;100.00;97460.72;4891736;29;20509;-75
2023/05/01 06:24:04;;;;;;;3.55;2.33;;;10.90;99.90;;;10.92;100.00;97463.50;4907266;29;20410;-75
2023/05/01 06:26:37;;;;;;;4.25;2.30;;;11.20;99.90;;;10.71;100.00;97466.16;4907975;29;20066;-76
2023/05/01 06:29:13;;;;;;;4.45;1.90;;;11.30;99.90;;;11.01;100.00;97458.69;4907502;29;20058;-76
2023/05/01 06:31:51;;;;;;;4.38;1.83;;;11.50;99.90;;;11.04;100.00;97457.75;4894093;29;20052;-76
2023/05/01 06:34:21;;;;;;;3.50;2.00;;;11.60;99.90;;;11.17;100.00;97451.03;4910698;29;20461;-76
2023/05/01 06:36:55;;;;;;;3.72;2.13;;;11.70;99.90;;;11.16;100.00;97454.56;4879560;29;20131;-75
2023/05/01 06:39:22;;;;;;;3.95;1.98;;;11.70;99.90;;;11.02;100.00;97457.81;4909179;29;20048;-76
2023/05/01 06:42:20;;;;;;;5.05;2.33;;;11.70;99.90;;;11.24;100.00;97455.06;4923260;28;20051;-76
2023/05/01 06:48:19;;;;;;;5.70;2.22;;;11.90;99.90;;;11.27;100.00;97464.47;4972039;28;20050;-76
2023/05/01 06:50:52;;;;;;;5.45;2.30;;;11.90;99.90;;;11.07;100.00;97460.19;4987019;28;20062;-75
2023/05/01 06:53:42;;;;;;;5.20;2.00;;;12.00;99.90;;;11.23;100.00;97462.91;4958299;28;20058;-75
2023/05/01 06:56:20;;;;;;;3.30;1.55;;;11.90;99.90;;;11.25;100.00;97461.09;4971554;28;20117;-75
2023/05/01 06:59:06;;;;;;;4.57;1.90;;;12.00;99.90;;;11.32;100.00;97452.09;4966997;28;20057;-75
2023/05/01 07:01:41;;;;;;;2.92;1.80;;;12.00;99.90;;;11.24;100.00;97459.41;4975176;28;20442;-76
2023/05/01 07:04:25;;;;;;;4.28;1.90;;;12.00;99.90;;;11.12;100.00;97454.78;4913495;29;20553;-76
2023/05/01 07:06:58;;;;;;;2.97;1.88;;;12.00;99.90;;;11.32;100.00;97454.69;4906994;29;20152;-76
2023/05/01 07:09:33;;;;;;;4.95;2.03;;;12.00;99.90;;;11.24;100.00;97454.19;4922683;29;20067;-76
2023/05/01 07:12:55;;;;;;;5.43;1.90;;;12.00;99.90;;;11.57;100.00;97451.75;4847086;29;20295;-76
2023/05/01 07:16:06;;;;;;;3.10;1.63;;;12.10;99.90;;;11.85;100.00;97448.63;4822796;29;20537;-76
2023/05/01 07:19:22;;;;;;;5.18;1.95;;;12.20;99.90;;;11.83;100.00;97444.41;4842051;29;20271;-76
2023/05/01 07:21:52;;;;;;;3.95;1.90;;;12.40;99.90;;;11.95;100.00;97443.00;4851178;29;20051;-77
2023/05/01 07:30:41;;;;;;;4.18;2.15;;;;;;;12.71;100.00;97441.63;4860586;29;20124;-77
2023/05/01 07:37:13;;;;;;;2.92;1.88;;;13.30;99.90;;;13.03;100.00;97433.84;4878459;29;20198;-77
2023/05/01 07:40:58;;;;;;;4.10;1.80;;;13.50;99.90;;;13.32;100.00;97442.69;4873389;29;20528;-77
2023/05/01 07:43:20;;;;;;;3.20;1.67;;;13.70;99.90;;;13.08;100.00;97431.81;4904664;29;20054;-77
2023/05/01 07:46:30;;;;;;;3.30;1.70;;;13.90;99.90;;;13.37;100.00;97435.47;4899402;29;20091;-76
2023/05/01 07:49:13;;;;;;;3.65;1.67;;;13.90;99.90;;;13.88;100.00;97427.34;4901846;29;20636;-77
2023/05/01 07:51:58;;;;;;;2.30;1.50;;;14.10;99.90;;;13.71;100.00;97430.94;4914552;28;20050;-77
2023/05/01 07:55:28;;;;;;;3.13;1.77;;;14.30;99.90;;;14.11;100.00;97430.38;4958209;28;20055;-77
2023/05/01 07:58:08;;;;;;;4.78;1.58;;;;;;;14.36;100.00;97425.34;4969467;28;20079;-77
2023/05/01 08:00:59;;;;;;;2.95;1.40;;;14.60;99.90;;;14.63;100.00;97422.88;4971575;28;20050;-77
2023/05/01 08:03:36;;;;;;;5.35;1.23;;;14.80;99.90;;;14.70;100.00;97422.50;4954636;28;20109;-77
2023/05/01 08:06:13;;;;;;;5.63;1.80;;;15.00;99.90;;;14.73;100.00;97424.91;4970735;28;20109;-76
2023/05/01 08:08:40;;;;;;;3.53;1.38;;;15.10;99.90;;;14.91;100.00;97423.78;4974026;28;20404;-77
2023/05/01 08:11:16;;;;;;;4.30;1.45;;;15.20;99.90;;;15.17;100.00;97413.47;4969168;28;20130;-75
2023/05/01 08:13:43;;;;;;;2.55;1.48;;;15.40;99.90;;;14.90;100.00;97414.28;4946379;28;20054;-76
2023/05/01 08:16:55;;;;;;;4.45;1.75;;;15.50;99.90;;;14.72;100.00;97425.88;4970563;28;20241;-75
2023/05/01 08:19:29;;;;;;;3.28;1.50;;;15.50;99.90;;;15.13;100.00;97415.44;4979501;28;20751;-76
2023/05/01 08:22:14;;;;;;;3.13;1.35;;;15.60;99.90;;;15.35;100.00;97412.28;4959136;28;20138;-76
2023/05/01 08:24:41;;;;;;;4.15;1.52;;;15.70;99.90;;;15.64;100.00;97406.91;4967406;28;20051;-76
2023/05/01 08:27:32;;;;;;;4.35;1.65;;;15.90;99.90;;;16.60;100.00;97401.34;4967490;28;20592;-76
2023/05/01 08:30:55;;;;;;;3.40;1.50;;;16.40;99.90;;;16.59;100.00;97400.50;4967454;28;20482;-78
2023/05/01 08:37:44;;;;;;;3.42;1.50;;;16.90;99.90;;;17.88;100.00;97400.91;4888035;29;20120;-78
2023/05/01 08:40:11;;;;;;;4.68;1.58;;;17.70;99.90;;;17.63;100.00;97396.59;4875577;29;20062;-78
2023/05/01 08:42:38;;;;;;;7.75;1.38;;;18.40;99.90;;;17.46;100.00;97401.31;4916039;29;20075;-78
2023/05/01 08:45:09;;;;;;;1.98;1.23;;;18.70;99.90;;;17.84;100.00;97402.09;4929401;29;20051;-77
2023/05/01 08:47:39;;;;;;;4.77;1.30;;;18.80;99.90;;;18.29;100.00;97400.41;4914492;28;20271;-78
2023/05/01 08:50:10;;;;;;;4.22;1.20;;;19.60;99.90;;;18.36;100.00;97396.34;4926516;29;20090;-78
2023/05/01 08:52:41;;;;;;;4.25;1.70;;;19.70;99.90;;;17.58;100.00;97396.13;4929349;29;20131;-78
2023/05/01 08:55:13;;;;;;;3.83;1.42;;;19.30;99.90;;;17.28;100.00;97400.03;4930549;29;20052;-78
2023/05/01 08:57:51;;;;;;;3.70;1.50;;;18.60;99.90;;;17.23;100.00;97395.13;4978805;28;20054;-78
2023/05/01 09:00:20;;;;;;;3.08;1.38;;;18.10;99.90;;;17.27;100.00;97393.13;4983620;28;20064;-78
2023/05/01 09:02:51;;;;;;;2.88;1.70;;;17.50;99.90;;;16.92;100.00;97394.72;4981652;28;20066;-78
2023/05/01 09:05:19;;;;;;;2.75;1.40;;;17.50;99.90;;;17.16;100.00;97388.66;4986985;28;20050;-78
2023/05/01 09:07:47;;;;;;;3.28;1.50;;;17.60;99.90;;;17.52;100.00;97382.50;4982298;28;20061;-79
2023/05/01 09:10:17;;;;;;;2.70;1.40;;;17.60;99.90;;;17.60;100.00;97381.94;4980876;28;20101;-79
2023/05/01 09:12:53;;;;;;;1.88;1.30;;;17.90;99.90;;;17.94;100.00;97382.88;4997242;28;20089;-78
2023/05/01 09:15:24;;;;;;;2.47;1.60;;;18.30;99.90;;;17.71;100.00;97383.75;4970677;28;20055;-78
2023/05/01 09:17:54;;;;;;;4.22;1.65;;;18.50;99.90;;;17.71;100.00;97379.34;4982232;28;20287;-78
2023/05/01 09:20:22;;;;;;;3.45;1.70;;;17.90;99.90;;;18.10;100.00;97379.94;4981336;28;20042;-78
2023/05/01 09:22:49;;;;;;;4.20;1.88;;;17.90;99.90;;;17.38;100.00;97385.31;4966439;28;20645;-78
2023/05/01 09:25:18;;;;;;;3.22;1.58;;;18.00;99.90;;;17.67;100.00;97380.50;4980337;28;20061;-78
2023/05/01 09:27:45;;;;;;;3.80;1.90;;;17.50;99.90;;;17.00;100.00;97386.28;4983398;28;20054;-78
2023/05/01 09:30:32;;;;;;;4.78;2.13;;;17.50;99.90;;;16.75;100.00;97384.56;4967267;28;20752;-78
2023/05/01 09:33:20;;;;;;;6.93;3.60;;;17.30;99.90;;;16.68;100.00;97388.56;4982542;28;20050;-78
2023/05/01 09:35:50;;;;;;;2.95;1.75;;;17.10;99.90;;;16.79;100.00;97383.44;4980835;28;20050;-77
2023/05/01 09:38:23;;;;;;;3.92;1.63;;;16.80;99.90;;;16.67;100.00;97382.47;4988247;28;20043;-78
2023/05/01 09:40:53;;;;;;;4.60;1.60;;;16.90;99.90;;;16.80;100.00;97397.38;4977392;28;20133;-77
2023/05/01 09:43:28;;;;;;;4.80;2.30;;;16.90;99.90;;;16.35;100.00;97386.50;4982388;28;20082;-78
2023/05/01 09:46:11;;;;;;;7.55;2.28;;;16.80;99.90;;;16.25;100.00;97389.75;4978252;28;20092;-78
2023/05/01 09:48:39;;;;;;;3.70;1.95;;;16.40;99.90;;;16.18;100.00;97393.72;4963513;28;20114;-77
2023/05/01 09:51:27;;;;;;;3.03;1.92;;;16.50;99.90;;;16.88;100.00;97395.06;4982381;28;20057;-78
2023/05/01 09:54:02;;;;;;;3.40;1.60;;;16.90;99.90;;;17.30;100.00;97385.84;4968508;28;20082;-77
2023/05/01 09:56:48;;;;;;;3.83;1.83;;;17.00;99.90;;;17.58;100.00;97386.44;4982975;28;20057;-76
2023/05/01 09:59:20;;;;;;;2.90;1.65;;;17.10;99.90;;;17.68;100.00;97382.19;4971015;28;20047;-76
2023/05/01 10:01:48;;;;;;;4.05;1.92;;;16.80;99.90;;;16.99;100.00;97389.03;4983404;28;20081;-77
2023/05/01 10:04:17;;;;;;;5.32;1.92;;;16.90;99.90;;;16.95;100.00;97380.56;4981500;28;20046;-77
2023/05/01 10:06:44;;;;;;;4.25;1.90;;;16.80;99.90;;;16.73;100.00;97389.06;4986091;28;20080;-79
2023/05/01 10:09:16;;;;;;;5.22;1.85;;;17.00;99.90;;;17.00;100.00;97388.09;4987981;28;20055;-80
2023/05/01 10:11:54;;;;;;;3.75;1.95;;;16.90;99.90;;;16.80;100.00;97394.75;4971875;28;20110;-80
2023/05/01 10:14:22;;;;;;;3.53;1.77;;;17.00;99.90;;;16.96;100.00;97389.25;5001562;28;20451;-81
2023/05/01 10:16:55;;;;;;;8.75;2.08;;;17.10;99.90;;;16.82;100.00;97382.38;4979202;28;20047;-81
2023/05/01 10:19:22;;;;;;;2.92;1.67;;;17.30;99.90;;;17.04;100.00;97387.75;4990534;28;20058;-80
2023/05/01 10:21:50;;;;;;;5.13;2.20;;;17.20;99.90;;;16.96;100.00;97387.44;4994296;28;20100;-81
2023/05/01 10:24:17;;;;;;;5.10;2.67;;;17.10;99.90;;;16.84;100.00;97399.66;4986783;28;20054;-79
2023/05/01 10:26:47;;;;;;;4.68;2.30;;;17.00;99.90;;;16.37;100.00;97395.91;4982530;28;20050;-80
2023/05/01 10:29:16;;;;;;;3.80;2.08;;;16.70;99.90;;;16.68;100.00;97393.78;4986309;28;20065;-80
2023/05/01 10:31:43;;;;;;;24.38;10.50;;;16.60;99.90;;;16.76;100.00;97399.31;4984601;28;20078;-79
2023/05/01 10:34:15;;;;;;;4.35;2.60;;;;;;;16.31;100.00;97391.94;4986668;28;20102;-78
2023/05/01 10:36:52;;;;;;;3.95;2.10;;;16.40;99.90;;;16.64;100.00;97390.53;4981472;28;20533;-78
2023/05/01 10:39:33;;;;;;;3.40;2.17;;;16.40;99.90;;;16.78;100.00;97392.19;4983259;28;20082;-78
2023/05/01 10:42:04;;;;;;;3.47;2.00;;;16.40;99.90;;;17.01;100.00;97398.44;4988537;28;20054;-78
2023/05/01 10:44:33;;;;;;;4.28;1.73;;;16.70;99.90;;;17.52;100.00;97398.25;4981939;28;20046;-77
2023/05/01 10:47:43;;;;;;;3.20;2.35;;;17.10;99.90;;;17.07;100.00;97400.63;4981590;28;20082;-79
2023/05/01 10:50:14;;;;;;;3.72;2.20;;;17.50;99.90;;;17.11;100.00;97402.09;4984684;28;20057;-78
2023/05/01 10:53:13;;;;;;;3.83;2.47;;;16.90;99.90;;;16.99;100.00;97395.13;4987046;28;20054;-77
2023/05/01 10:55:43;;;;;;;4.78;2.65;;;17.00;99.90;;;17.13;100.00;97397.59;4982802;28;20081;-78
2023/05/01 10:58:12;;;;;;;4.95;2.33;;;17.10;99.90;;;17.47;100.00;97396.91;4985062;28;20379;-78
2023/05/01 11:00:41;;;;;;;4.93;2.42;;;16.80;99.90;;;17.65;100.00;97398.19;4981929;28;20046;-77
2023/05/01 11:03:20;;;;;;;3.67;2.13;;;16.80;99.90;;;17.39;100.00;97394.84;4988381;28;20053;-77
2023/05/01 11:05:59;;;;;;;5.95;2.10;;;17.40;99.90;;;18.04;100.00;97400.56;4996612;28;20066;-78
2023/05/01 11:08:37;;;;;;;3.92;2.30;;;17.50;99.90;;;18.56;100.00;97384.25;4982402;28;20545;-77
2023/05/01 11:11:20;;;;;;;4.97;2.50;;;17.70;99.90;;;17.78;100.00;97388.44;4982252;28;20109;-79
2023/05/01 11:13:59;;;;;;;;;;;18.00;99.90;;;18.44;100.00;97387.84;4982378;28;20420;-79
2023/05/01 11:16:40;;;;;;;4.72;2.10;;;17.80;99.90;;;18.87;100.00;97378.44;4993965;28;19925;-80
2023/05/01 11:19:43;;;;;;;5.07;2.20;;;18.10;99.90;;;18.86;100.00;97380.25;4979905;28;20050;-79
2023/05/01 11:22:14;;;;;;;5.88;1.83;;;18.60;99.90;;;19.11;100.00;97380.88;4967497;28;20590;-79
2023/05/01 11:24:41;;;;;;;4.15;2.17;;;19.20;99.90;;;19.35;100.00;97378.06;4980817;28;20507;-77
2023/05/01 11:27:13;;;;;;;3.03;1.83;;;18.80;99.90;;;19.48;100.00;97376.13;4984362;28;20468;-77
2023/05/01 11:29:43;;;;;;;4.35;1.92;;;18.50;99.90;;;19.36;100.00;97369.19;4978166;28;20146;-77
2023/05/01 11:32:19;;;;;;;4.63;2.15;;;18.70;99.90;;;19.57;100.00;97367.47;4961658;28;20137;-77
2023/05/01 11:34:49;;;;;;;3.22;1.80;;;19.30;99.90;;;19.92;100.00;97368.97;4985912;28;20054;-77
2023/05/01 11:37:17;;;;;;;4.05;1.85;;;20.00;99.90;;;20.51;100.00;97359.56;4976975;28;20058;-77
2023/05/01 11:39:52;;;;;;;2.85;1.85;;;19.80;99.90;;;20.71;100.00;97370.22;4987784;28;20057;-77
2023/05/01 11:42:21;;;;;;;3.45;2.00;;;20.30;99.90;;;19.73;100.00;97367.06;4988160;28;20205;-77